sensor_id;sensor_type;location;lat;lon;timestamp;P1;durP1;ratioP1;P2;durP2;ratioP2
21554;SDS011;10938;44.794;-0.676;2023-03-01T00:01:02;10.98;;;6.63;;
21554;SDS011;10938;44.794;-0.676;2023-03-01T00:03:36;11.15;;;5.88;;
21554;SDS011;10938;44.794;-0.676;2023-03-01T00:06:02;9.27;;;6.60;;
21554;SDS011;10938;44.794;-0.676;2023-03-01T00:08:30;9.20;;;5.60;;
21554;SDS011;10938;44.794;-0.676;2023-03-01T00:13:31;9.20;;;5.43;;
21554;SDS011;10938;44.794;-0.676;2023-03-01T00:15:58;8.40;;;5.40;;
21554;SDS011;10938;44.794;-0.676;2023-03-01T00:18:23;8.93;;;5.88;;
21554;SDS011;10938;44.794;-0.676;2023-03-01T00:20:53;9.40;;;6.30;;
21554;SDS011;10938;44.794;-0.676;2023-03-01T00:23:20;8.55;;;5.22;;
21554;SDS011;10938;44.794;-0.676;2023-03-01T00:25:46;7.20;;;4.80;;
21554;SDS011;10938;44.794;-0.676;2023-03-01T00:28:12;8.20;;;4.90;;
21554;SDS011;10938;44.794;-0.676;2023-03-01T00:30:37;8.60;;;5.30;;
21554;SDS011;10938;44.794;-0.676;2023-03-01T00:33:03;8.98;;;5.47;;
21554;SDS011;10938;44.794;-0.676;2023-03-01T00:35:29;9.98;;;6.20;;
21554;SDS011;10938;44.794;-0.676;2023-03-01T00:37:54;8.57;;;5.93;;
21554;SDS011;10938;44.794;-0.676;2023-03-01T00:40:29;9.80;;;6.25;;
21554;SDS011;10938;44.794;-0.676;2023-03-01T00:42:57;9.85;;;6.05;;
21554;SDS011;10938;44.794;-0.676;2023-03-01T00:45:22;8.43;;;6.13;;
21554;SDS011;10938;44.794;-0.676;2023-03-01T00:47:49;7.78;;;5.40;;
21554;SDS011;10938;44.794;-0.676;2023-03-01T00:50:15;8.82;;;5.20;;
21554;SDS011;10938;44.794;-0.676;2023-03-01T00:52:41;6.97;;;4.03;;
21554;SDS011;10938;44.794;-0.676;2023-03-01T00:55:07;6.70;;;4.50;;
21554;SDS011;10938;44.794;-0.676;2023-03-01T00:57:33;8.00;;;5.20;;
21554;SDS011;10938;44.794;-0.676;2023-03-01T00:59:58;8.15;;;5.60;;
21554;SDS011;10938;44.794;-0.676;2023-03-01T01:02:24;7.35;;;4.72;;
21554;SDS011;10938;44.794;-0.676;2023-03-01T01:04:50;7.43;;;4.97;;
21554;SDS011;10938;44.794;-0.676;2023-03-01T01:07:16;8.15;;;4.60;;
21554;SDS011;10938;44.794;-0.676;2023-03-01T01:09:42;7.60;;;4.53;;
21554;SDS011;10938;44.794;-0.676;2023-03-01T01:12:07;6.95;;;4.38;;
21554;SDS011;10938;44.794;-0.676;2023-03-01T01:14:33;8.45;;;4.78;;
21554;SDS011;10938;44.794;-0.676;2023-03-01T01:16:59;7.00;;;4.85;;
21554;SDS011;10938;44.794;-0.676;2023-03-01T01:19:25;5.93;;;4.57;;
21554;SDS011;10938;44.794;-0.676;2023-03-01T01:21:51;9.10;;;5.45;;
21554;SDS011;10938;44.794;-0.676;2023-03-01T01:24:17;7.53;;;5.00;;
21554;SDS011;10938;44.794;-0.676;2023-03-01T01:26:44;7.15;;;4.50;;
21554;SDS011;10938;44.794;-0.676;2023-03-01T01:29:09;7.32;;;4.55;;
21554;SDS011;10938;44.794;-0.676;2023-03-01T01:31:36;6.05;;;4.40;;
21554;SDS011;10938;44.794;-0.676;2023-03-01T01:34:03;6.85;;;4.13;;
21554;SDS011;10938;44.794;-0.676;2023-03-01T01:36:30;6.50;;;4.40;;
21554;SDS011;10938;44.794;-0.676;2023-03-01T01:38:56;6.00;;;4.28;;
21554;SDS011;10938;44.794;-0.676;2023-03-01T01:41:23;5.93;;;4.10;;
21554;SDS011;10938;44.794;-0.676;2023-03-01T01:44:09;7.90;;;4.28;;
21554;SDS011;10938;44.794;-0.676;2023-03-01T01:46:45;6.95;;;4.45;;
21554;SDS011;10938;44.794;-0.676;2023-03-01T01:51:57;5.63;;;4.28;;
21554;SDS011;10938;44.794;-0.676;2023-03-01T01:55:14;6.28;;;4.53;;
21554;SDS011;10938;44.794;-0.676;2023-03-01T01:57:27;6.30;;;4.30;;
21554;SDS011;10938;44.794;-0.676;2023-03-01T02:00:00;8.10;;;4.20;;
21554;SDS011;10938;44.794;-0.676;2023-03-01T02:08:00;6.03;;;4.20;;
21554;SDS011;10938;44.794;-0.676;2023-03-01T02:10:26;6.40;;;4.00;;
21554;SDS011;10938;44.794;-0.676;2023-03-01T02:12:53;5.35;;;4.00;;
21554;SDS011;10938;44.794;-0.676;2023-03-01T02:15:19;7.05;;;4.15;;
21554;SDS011;10938;44.794;-0.676;2023-03-01T02:17:44;6.15;;;4.40;;
21554;SDS011;10938;44.794;-0.676;2023-03-01T02:22:48;6.22;;;4.30;;
21554;SDS011;10938;44.794;-0.676;2023-03-01T02:30:59;6.18;;;4.00;;
21554;SDS011;10938;44.794;-0.676;2023-03-01T02:33:44;6.10;;;4.40;;
21554;SDS011;10938;44.794;-0.676;2023-03-01T02:36:15;7.13;;;4.60;;
21554;SDS011;10938;44.794;-0.676;2023-03-01T02:38:47;7.05;;;4.00;;
21554;SDS011;10938;44.794;-0.676;2023-03-01T02:41:15;6.03;;;3.78;;
21554;SDS011;10938;44.794;-0.676;2023-03-01T02:43:42;6.35;;;4.55;;
21554;SDS011;10938;44.794;-0.676;2023-03-01T02:46:13;6.25;;;4.57;;
21554;SDS011;10938;44.794;-0.676;2023-03-01T02:48:54;6.25;;;4.63;;
21554;SDS011;10938;44.794;-0.676;2023-03-01T02:51:38;8.18;;;4.93;;
21554;SDS011;10938;44.794;-0.676;2023-03-01T02:54:31;7.20;;;4.70;;
21554;SDS011;10938;44.794;-0.676;2023-03-01T02:57:04;7.38;;;4.63;;
21554;SDS011;10938;44.794;-0.676;2023-03-01T02:59:31;5.72;;;4.57;;
21554;SDS011;10938;44.794;-0.676;2023-03-01T03:02:04;8.63;;;4.90;;
21554;SDS011;10938;44.794;-0.676;2023-03-01T03:04:30;6.80;;;4.55;;
21554;SDS011;10938;44.794;-0.676;2023-03-01T03:06:57;5.75;;;4.65;;
21554;SDS011;10938;44.794;-0.676;2023-03-01T03:09:25;6.13;;;4.93;;
21554;SDS011;10938;44.794;-0.676;2023-03-01T03:11:51;6.07;;;4.47;;
21554;SDS011;10938;44.794;-0.676;2023-03-01T03:14:17;7.47;;;5.05;;
21554;SDS011;10938;44.794;-0.676;2023-03-01T03:16:44;10.50;;;5.97;;
21554;SDS011;10938;44.794;-0.676;2023-03-01T03:19:11;6.70;;;5.07;;
21554;SDS011;10938;44.794;-0.676;2023-03-01T03:21:37;7.80;;;4.80;;
21554;SDS011;10938;44.794;-0.676;2023-03-01T03:24:03;6.93;;;4.90;;
21554;SDS011;10938;44.794;-0.676;2023-03-01T03:26:30;8.68;;;5.20;;
21554;SDS011;10938;44.794;-0.676;2023-03-01T03:28:55;7.90;;;4.90;;
21554;SDS011;10938;44.794;-0.676;2023-03-01T03:31:21;7.30;;;5.65;;
21554;SDS011;10938;44.794;-0.676;2023-03-01T03:33:47;8.32;;;5.55;;
21554;SDS011;10938;44.794;-0.676;2023-03-01T03:36:17;9.05;;;5.45;;
21554;SDS011;10938;44.794;-0.676;2023-03-01T03:38:43;8.35;;;5.55;;
21554;SDS011;10938;44.794;-0.676;2023-03-01T03:41:11;7.53;;;5.88;;
21554;SDS011;10938;44.794;-0.676;2023-03-01T03:43:37;7.07;;;5.68;;
21554;SDS011;10938;44.794;-0.676;2023-03-01T03:46:04;11.32;;;5.63;;
21554;SDS011;10938;44.794;-0.676;2023-03-01T03:48:31;8.38;;;5.55;;
21554;SDS011;10938;44.794;-0.676;2023-03-01T03:50:59;8.18;;;5.43;;
21554;SDS011;10938;44.794;-0.676;2023-03-01T03:53:25;9.63;;;6.40;;
21554;SDS011;10938;44.794;-0.676;2023-03-01T03:55:52;8.48;;;5.70;;
21554;SDS011;10938;44.794;-0.676;2023-03-01T03:58:18;7.45;;;5.57;;
21554;SDS011;10938;44.794;-0.676;2023-03-01T04:00:45;10.82;;;5.93;;
21554;SDS011;10938;44.794;-0.676;2023-03-01T04:03:12;8.40;;;6.05;;
21554;SDS011;10938;44.794;-0.676;2023-03-01T04:05:40;8.05;;;5.45;;
21554;SDS011;10938;44.794;-0.676;2023-03-01T04:08:07;8.88;;;6.20;;
21554;SDS011;10938;44.794;-0.676;2023-03-01T04:10:34;9.77;;;6.10;;
21554;SDS011;10938;44.794;-0.676;2023-03-01T04:13:02;8.40;;;6.40;;
21554;SDS011;10938;44.794;-0.676;2023-03-01T04:15:29;9.40;;;6.03;;
21554;SDS011;10938;44.794;-0.676;2023-03-01T04:17:56;7.95;;;5.55;;
21554;SDS011;10938;44.794;-0.676;2023-03-01T04:20:23;8.95;;;5.93;;
21554;SDS011;10938;44.794;-0.676;2023-03-01T04:22:57;7.38;;;5.97;;
21554;SDS011;10938;44.794;-0.676;2023-03-01T04:25:23;7.22;;;5.47;;
21554;SDS011;10938;44.794;-0.676;2023-03-01T04:27:49;8.50;;;6.13;;
21554;SDS011;10938;44.794;-0.676;2023-03-01T04:30:14;7.57;;;5.38;;
21554;SDS011;10938;44.794;-0.676;2023-03-01T04:32:40;8.40;;;5.93;;
21554;SDS011;10938;44.794;-0.676;2023-03-01T04:35:06;6.50;;;5.38;;
21554;SDS011;10938;44.794;-0.676;2023-03-01T04:37:31;8.05;;;6.10;;
21554;SDS011;10938;44.794;-0.676;2023-03-01T04:39:57;7.13;;;5.47;;
21554;SDS011;10938;44.794;-0.676;2023-03-01T04:42:22;6.97;;;5.40;;
21554;SDS011;10938;44.794;-0.676;2023-03-01T04:44:48;9.57;;;6.00;;
21554;SDS011;10938;44.794;-0.676;2023-03-01T04:47:16;7.95;;;5.82;;
21554;SDS011;10938;44.794;-0.676;2023-03-01T04:49:42;11.10;;;6.00;;
21554;SDS011;10938;44.794;-0.676;2023-03-01T04:52:07;8.75;;;5.80;;
21554;SDS011;10938;44.794;-0.676;2023-03-01T04:54:34;7.10;;;5.63;;
21554;SDS011;10938;44.794;-0.676;2023-03-01T04:57:01;11.10;;;6.10;;
21554;SDS011;10938;44.794;-0.676;2023-03-01T04:59:27;8.57;;;5.90;;
21554;SDS011;10938;44.794;-0.676;2023-03-01T05:01:53;8.20;;;5.93;;
21554;SDS011;10938;44.794;-0.676;2023-03-01T05:04:23;8.70;;;5.60;;
21554;SDS011;10938;44.794;-0.676;2023-03-01T05:06:49;10.68;;;6.18;;
21554;SDS011;10938;44.794;-0.676;2023-03-01T05:09:15;7.25;;;5.32;;
21554;SDS011;10938;44.794;-0.676;2023-03-01T05:11:41;7.90;;;6.00;;
21554;SDS011;10938;44.794;-0.676;2023-03-01T05:14:08;8.48;;;5.78;;
21554;SDS011;10938;44.794;-0.676;2023-03-01T05:16:35;7.70;;;5.18;;
21554;SDS011;10938;44.794;-0.676;2023-03-01T05:19:02;8.35;;;6.03;;
21554;SDS011;10938;44.794;-0.676;2023-03-01T05:21:37;7.97;;;6.50;;
21554;SDS011;10938;44.794;-0.676;2023-03-01T05:24:23;7.30;;;5.72;;
21554;SDS011;10938;44.794;-0.676;2023-03-01T05:26:49;7.50;;;6.05;;
21554;SDS011;10938;44.794;-0.676;2023-03-01T05:29:17;6.65;;;5.32;;
21554;SDS011;10938;44.794;-0.676;2023-03-01T05:31:53;8.20;;;6.00;;
21554;SDS011;10938;44.794;-0.676;2023-03-01T05:34:26;10.77;;;5.45;;
21554;SDS011;10938;44.794;-0.676;2023-03-01T05:36:53;6.50;;;5.00;;
21554;SDS011;10938;44.794;-0.676;2023-03-01T05:39:22;8.32;;;5.60;;
21554;SDS011;10938;44.794;-0.676;2023-03-01T05:41:56;7.18;;;5.30;;
21554;SDS011;10938;44.794;-0.676;2023-03-01T05:44:24;8.82;;;5.80;;
21554;SDS011;10938;44.794;-0.676;2023-03-01T05:46:52;9.43;;;6.07;;
21554;SDS011;10938;44.794;-0.676;2023-03-01T05:49:18;6.25;;;5.18;;
21554;SDS011;10938;44.794;-0.676;2023-03-01T05:51:47;9.13;;;6.05;;
21554;SDS011;10938;44.794;-0.676;2023-03-01T05:54:13;7.85;;;5.68;;
21554;SDS011;10938;44.794;-0.676;2023-03-01T05:56:39;8.23;;;6.05;;
21554;SDS011;10938;44.794;-0.676;2023-03-01T05:59:05;8.38;;;5.93;;
21554;SDS011;10938;44.794;-0.676;2023-03-01T06:01:31;9.40;;;6.00;;
21554;SDS011;10938;44.794;-0.676;2023-03-01T06:03:57;6.13;;;5.20;;
21554;SDS011;10938;44.794;-0.676;2023-03-01T06:06:23;7.47;;;5.60;;
21554;SDS011;10938;44.794;-0.676;2023-03-01T06:08:50;8.82;;;5.63;;
21554;SDS011;10938;44.794;-0.676;2023-03-01T06:11:16;7.85;;;5.57;;
21554;SDS011;10938;44.794;-0.676;2023-03-01T06:13:42;7.95;;;5.65;;
21554;SDS011;10938;44.794;-0.676;2023-03-01T06:16:08;8.00;;;6.03;;
21554;SDS011;10938;44.794;-0.676;2023-03-01T06:18:35;9.88;;;6.75;;
21554;SDS011;10938;44.794;-0.676;2023-03-01T06:21:00;9.85;;;7.28;;
21554;SDS011;10938;44.794;-0.676;2023-03-01T06:23:26;10.15;;;7.30;;
21554;SDS011;10938;44.794;-0.676;2023-03-01T06:25:51;11.30;;;7.50;;
21554;SDS011;10938;44.794;-0.676;2023-03-01T06:28:17;11.32;;;7.28;;
21554;SDS011;10938;44.794;-0.676;2023-03-01T06:30:42;10.63;;;7.93;;
21554;SDS011;10938;44.794;-0.676;2023-03-01T06:33:08;12.02;;;7.85;;
21554;SDS011;10938;44.794;-0.676;2023-03-01T06:35:34;10.50;;;7.90;;
21554;SDS011;10938;44.794;-0.676;2023-03-01T06:38:00;12.50;;;8.30;;
21554;SDS011;10938;44.794;-0.676;2023-03-01T06:40:27;14.77;;;8.25;;
21554;SDS011;10938;44.794;-0.676;2023-03-01T06:42:53;13.38;;;8.88;;
21554;SDS011;10938;44.794;-0.676;2023-03-01T06:45:19;14.73;;;8.45;;
21554;SDS011;10938;44.794;-0.676;2023-03-01T06:47:46;13.88;;;9.15;;
21554;SDS011;10938;44.794;-0.676;2023-03-01T06:50:12;16.65;;;8.50;;
21554;SDS011;10938;44.794;-0.676;2023-03-01T06:52:38;11.55;;;7.78;;
21554;SDS011;10938;44.794;-0.676;2023-03-01T06:55:04;10.77;;;7.38;;
21554;SDS011;10938;44.794;-0.676;2023-03-01T06:57:30;12.90;;;8.10;;
21554;SDS011;10938;44.794;-0.676;2023-03-01T06:59:55;11.80;;;7.47;;
21554;SDS011;10938;44.794;-0.676;2023-03-01T07:02:21;11.77;;;7.50;;
21554;SDS011;10938;44.794;-0.676;2023-03-01T07:04:48;14.70;;;7.93;;
21554;SDS011;10938;44.794;-0.676;2023-03-01T07:07:21;12.77;;;8.68;;
21554;SDS011;10938;44.794;-0.676;2023-03-01T07:09:48;25.02;;;8.25;;
21554;SDS011;10938;44.794;-0.676;2023-03-01T07:12:13;13.20;;;7.90;;
21554;SDS011;10938;44.794;-0.676;2023-03-01T07:14:39;11.48;;;8.73;;
21554;SDS011;10938;44.794;-0.676;2023-03-01T07:17:08;13.68;;;8.18;;
21554;SDS011;10938;44.794;-0.676;2023-03-01T07:19:34;14.23;;;8.55;;
21554;SDS011;10938;44.794;-0.676;2023-03-01T07:22:00;13.93;;;8.80;;
21554;SDS011;10938;44.794;-0.676;2023-03-01T07:24:27;12.63;;;8.65;;
21554;SDS011;10938;44.794;-0.676;2023-03-01T07:26:53;11.80;;;8.00;;
21554;SDS011;10938;44.794;-0.676;2023-03-01T07:29:18;11.57;;;8.30;;
21554;SDS011;10938;44.794;-0.676;2023-03-01T07:31:44;13.75;;;7.88;;
21554;SDS011;10938;44.794;-0.676;2023-03-01T07:34:10;12.38;;;7.60;;
21554;SDS011;10938;44.794;-0.676;2023-03-01T07:36:36;11.63;;;8.43;;
21554;SDS011;10938;44.794;-0.676;2023-03-01T07:39:02;11.43;;;7.63;;
21554;SDS011;10938;44.794;-0.676;2023-03-01T07:41:31;11.73;;;8.23;;
21554;SDS011;10938;44.794;-0.676;2023-03-01T07:43:56;11.93;;;7.80;;
21554;SDS011;10938;44.794;-0.676;2023-03-01T07:46:22;12.52;;;7.78;;
21554;SDS011;10938;44.794;-0.676;2023-03-01T07:48:49;9.35;;;6.43;;
21554;SDS011;10938;44.794;-0.676;2023-03-01T07:51:14;10.77;;;6.75;;
21554;SDS011;10938;44.794;-0.676;2023-03-01T07:53:40;9.85;;;6.85;;
21554;SDS011;10938;44.794;-0.676;2023-03-01T07:56:07;10.05;;;6.43;;
21554;SDS011;10938;44.794;-0.676;2023-03-01T07:58:38;9.77;;;7.00;;
21554;SDS011;10938;44.794;-0.676;2023-03-01T08:01:06;12.68;;;6.32;;
21554;SDS011;10938;44.794;-0.676;2023-03-01T08:03:37;9.27;;;6.80;;
21554;SDS011;10938;44.794;-0.676;2023-03-01T08:06:04;8.02;;;6.30;;
21554;SDS011;10938;44.794;-0.676;2023-03-01T08:08:32;7.90;;;6.32;;
21554;SDS011;10938;44.794;-0.676;2023-03-01T08:11:01;10.85;;;7.03;;
21554;SDS011;10938;44.794;-0.676;2023-03-01T08:13:29;9.27;;;6.82;;
21554;SDS011;10938;44.794;-0.676;2023-03-01T08:16:00;7.03;;;6.32;;
21554;SDS011;10938;44.794;-0.676;2023-03-01T08:18:27;9.40;;;6.53;;
21554;SDS011;10938;44.794;-0.676;2023-03-01T08:20:52;7.85;;;6.50;;
21554;SDS011;10938;44.794;-0.676;2023-03-01T08:23:18;13.07;;;6.90;;
21554;SDS011;10938;44.794;-0.676;2023-03-01T08:25:47;9.32;;;6.45;;
21554;SDS011;10938;44.794;-0.676;2023-03-01T08:28:13;8.35;;;6.75;;
21554;SDS011;10938;44.794;-0.676;2023-03-01T08:30:39;9.63;;;6.80;;
21554;SDS011;10938;44.794;-0.676;2023-03-01T08:33:04;9.80;;;6.95;;
21554;SDS011;10938;44.794;-0.676;2023-03-01T08:35:33;10.70;;;7.70;;
21554;SDS011;10938;44.794;-0.676;2023-03-01T08:37:58;12.85;;;7.82;;
21554;SDS011;10938;44.794;-0.676;2023-03-01T08:40:24;9.45;;;7.18;;
21554;SDS011;10938;44.794;-0.676;2023-03-01T08:42:50;9.73;;;6.88;;
21554;SDS011;10938;44.794;-0.676;2023-03-01T08:45:15;8.70;;;6.80;;
21554;SDS011;10938;44.794;-0.676;2023-03-01T08:47:44;9.50;;;7.20;;
21554;SDS011;10938;44.794;-0.676;2023-03-01T08:50:10;8.80;;;6.65;;
21554;SDS011;10938;44.794;-0.676;2023-03-01T08:52:36;11.15;;;7.50;;
21554;SDS011;10938;44.794;-0.676;2023-03-01T08:55:01;8.90;;;7.32;;
21554;SDS011;10938;44.794;-0.676;2023-03-01T08:57:27;9.00;;;7.05;;
21554;SDS011;10938;44.794;-0.676;2023-03-01T08:59:55;11.68;;;6.95;;
21554;SDS011;10938;44.794;-0.676;2023-03-01T09:02:21;11.10;;;7.50;;
21554;SDS011;10938;44.794;-0.676;2023-03-01T09:04:47;10.43;;;6.82;;
21554;SDS011;10938;44.794;-0.676;2023-03-01T09:07:12;8.95;;;6.90;;
21554;SDS011;10938;44.794;-0.676;2023-03-01T09:09:38;8.85;;;6.78;;
21554;SDS011;10938;44.794;-0.676;2023-03-01T09:12:03;11.63;;;8.18;;
21554;SDS011;10938;44.794;-0.676;2023-03-01T09:14:31;10.27;;;6.80;;
21554;SDS011;10938;44.794;-0.676;2023-03-01T09:16:57;8.88;;;6.32;;
21554;SDS011;10938;44.794;-0.676;2023-03-01T09:19:22;9.40;;;7.22;;
21554;SDS011;10938;44.794;-0.676;2023-03-01T09:21:48;8.77;;;6.72;;
21554;SDS011;10938;44.794;-0.676;2023-03-01T09:24:18;10.27;;;7.25;;
21554;SDS011;10938;44.794;-0.676;2023-03-01T09:26:48;10.35;;;6.90;;
21554;SDS011;10938;44.794;-0.676;2023-03-01T09:29:15;10.93;;;7.00;;
21554;SDS011;10938;44.794;-0.676;2023-03-01T09:31:41;8.32;;;6.20;;
21554;SDS011;10938;44.794;-0.676;2023-03-01T09:34:07;7.95;;;6.32;;
21554;SDS011;10938;44.794;-0.676;2023-03-01T09:36:33;9.32;;;7.60;;
21554;SDS011;10938;44.794;-0.676;2023-03-01T09:38:59;8.23;;;7.05;;
21554;SDS011;10938;44.794;-0.676;2023-03-01T09:46:53;18.05;;;7.13;;
21554;SDS011;10938;44.794;-0.676;2023-03-01T09:49:20;9.27;;;7.25;;
21554;SDS011;10938;44.794;-0.676;2023-03-01T09:51:56;7.45;;;6.22;;
21554;SDS011;10938;44.794;-0.676;2023-03-01T09:54:37;7.50;;;6.65;;
21554;SDS011;10938;44.794;-0.676;2023-03-01T09:57:11;12.23;;;6.97;;
21554;SDS011;10938;44.794;-0.676;2023-03-01T09:59:50;7.93;;;7.13;;
21554;SDS011;10938;44.794;-0.676;2023-03-01T10:07:54;10.85;;;7.30;;
21554;SDS011;10938;44.794;-0.676;2023-03-01T10:10:44;8.60;;;6.70;;
21554;SDS011;10938;44.794;-0.676;2023-03-01T10:13:17;9.93;;;6.88;;
21554;SDS011;10938;44.794;-0.676;2023-03-01T10:15:50;8.77;;;7.28;;
21554;SDS011;10938;44.794;-0.676;2023-03-01T10:18:21;9.85;;;6.82;;
21554;SDS011;10938;44.794;-0.676;2023-03-01T10:23:15;10.90;;;6.47;;
21554;SDS011;10938;44.794;-0.676;2023-03-01T10:31:02;8.73;;;6.50;;
21554;SDS011;10938;44.794;-0.676;2023-03-01T10:33:29;8.23;;;6.72;;
21554;SDS011;10938;44.794;-0.676;2023-03-01T10:35:59;9.45;;;6.95;;
21554;SDS011;10938;44.794;-0.676;2023-03-01T10:38:24;9.10;;;6.72;;
21554;SDS011;10938;44.794;-0.676;2023-03-01T10:43:23;11.82;;;6.88;;
21554;SDS011;10938;44.794;-0.676;2023-03-01T10:46:22;10.68;;;7.00;;
21554;SDS011;10938;44.794;-0.676;2023-03-01T10:49:07;8.48;;;6.60;;
21554;SDS011;10938;44.794;-0.676;2023-03-01T10:51:44;13.48;;;7.00;;
21554;SDS011;10938;44.794;-0.676;2023-03-01T10:54:22;11.55;;;6.55;;
21554;SDS011;10938;44.794;-0.676;2023-03-01T10:56:52;7.80;;;5.72;;
21554;SDS011;10938;44.794;-0.676;2023-03-01T11:04:28;9.80;;;6.35;;
21554;SDS011;10938;44.794;-0.676;2023-03-01T11:06:57;9.40;;;5.65;;
21554;SDS011;10938;44.794;-0.676;2023-03-01T11:09:24;7.72;;;6.10;;
21554;SDS011;10938;44.794;-0.676;2023-03-01T11:11:56;8.52;;;7.13;;
21554;SDS011;10938;44.794;-0.676;2023-03-01T11:14:23;7.75;;;6.70;;
21554;SDS011;10938;44.794;-0.676;2023-03-01T11:17:00;8.13;;;7.13;;
21554;SDS011;10938;44.794;-0.676;2023-03-01T11:19:27;7.72;;;6.68;;
21554;SDS011;10938;44.794;-0.676;2023-03-01T11:21:58;9.23;;;6.22;;
21554;SDS011;10938;44.794;-0.676;2023-03-01T11:24:52;8.38;;;5.70;;
21554;SDS011;10938;44.794;-0.676;2023-03-01T11:32:40;8.05;;;5.00;;
21554;SDS011;10938;44.794;-0.676;2023-03-01T11:35:17;6.60;;;4.30;;
21554;SDS011;10938;44.794;-0.676;2023-03-01T11:38:02;7.38;;;5.85;;
21554;SDS011;10938;44.794;-0.676;2023-03-01T11:40:44;7.90;;;6.30;;
21554;SDS011;10938;44.794;-0.676;2023-03-01T11:46:51;7.88;;;6.32;;
21554;SDS011;10938;44.794;-0.676;2023-03-01T11:51:58;6.45;;;5.55;;
21554;SDS011;10938;44.794;-0.676;2023-03-01T12:00:12;6.22;;;4.88;;
21554;SDS011;10938;44.794;-0.676;2023-03-01T12:30:42;7.43;;;6.43;;
21554;SDS011;10938;44.794;-0.676;2023-03-01T12:43:58;7.43;;;6.22;;
21554;SDS011;10938;44.794;-0.676;2023-03-01T12:49:33;7.43;;;5.47;;
21554;SDS011;10938;44.794;-0.676;2023-03-01T12:52:09;7.70;;;6.00;;
21554;SDS011;10938;44.794;-0.676;2023-03-01T12:54:38;8.88;;;6.82;;
21554;SDS011;10938;44.794;-0.676;2023-03-01T12:57:15;7.32;;;6.40;;
21554;SDS011;10938;44.794;-0.676;2023-03-01T12:59:50;8.05;;;6.47;;
21554;SDS011;10938;44.794;-0.676;2023-03-01T13:10:49;8.73;;;6.38;;
21554;SDS011;10938;44.794;-0.676;2023-03-01T13:13:20;8.70;;;6.63;;
21554;SDS011;10938;44.794;-0.676;2023-03-01T13:15:47;11.52;;;7.93;;
21554;SDS011;10938;44.794;-0.676;2023-03-01T13:26:17;11.05;;;8.25;;
21554;SDS011;10938;44.794;-0.676;2023-03-01T13:36:06;10.18;;;8.23;;
21554;SDS011;10938;44.794;-0.676;2023-03-01T13:49:36;10.02;;;8.52;;
21554;SDS011;10938;44.794;-0.676;2023-03-01T13:52:06;9.95;;;8.00;;
21554;SDS011;10938;44.794;-0.676;2023-03-01T13:54:49;12.43;;;9.73;;
21554;SDS011;10938;44.794;-0.676;2023-03-01T13:57:18;12.10;;;9.63;;
21554;SDS011;10938;44.794;-0.676;2023-03-01T13:59:53;12.02;;;10.57;;
21554;SDS011;10938;44.794;-0.676;2023-03-01T14:02:18;13.73;;;10.55;;
21554;SDS011;10938;44.794;-0.676;2023-03-01T14:04:44;11.60;;;9.48;;
21554;SDS011;10938;44.794;-0.676;2023-03-01T14:07:22;11.32;;;9.60;;
21554;SDS011;10938;44.794;-0.676;2023-03-01T14:10:13;10.73;;;9.27;;
21554;SDS011;10938;44.794;-0.676;2023-03-01T14:12:50;13.43;;;9.93;;
21554;SDS011;10938;44.794;-0.676;2023-03-01T14:15:42;12.90;;;10.85;;
21554;SDS011;10938;44.794;-0.676;2023-03-01T14:18:39;13.98;;;11.10;;
21554;SDS011;10938;44.794;-0.676;2023-03-01T14:21:08;13.25;;;10.77;;
21554;SDS011;10938;44.794;-0.676;2023-03-01T14:23:33;14.07;;;10.13;;
21554;SDS011;10938;44.794;-0.676;2023-03-01T14:26:01;15.02;;;11.55;;
21554;SDS011;10938;44.794;-0.676;2023-03-01T14:28:27;11.73;;;9.30;;
21554;SDS011;10938;44.794;-0.676;2023-03-01T14:30:55;11.70;;;10.35;;
21554;SDS011;10938;44.794;-0.676;2023-03-01T14:33:24;12.98;;;10.15;;
21554;SDS011;10938;44.794;-0.676;2023-03-01T14:36:07;12.00;;;10.32;;
21554;SDS011;10938;44.794;-0.676;2023-03-01T14:43:50;15.15;;;11.45;;
21554;SDS011;10938;44.794;-0.676;2023-03-01T14:46:23;14.02;;;11.23;;
21554;SDS011;10938;44.794;-0.676;2023-03-01T14:48:54;13.20;;;10.88;;
21554;SDS011;10938;44.794;-0.676;2023-03-01T14:51:26;11.77;;;10.27;;
21554;SDS011;10938;44.794;-0.676;2023-03-01T14:53:52;13.60;;;10.95;;
21554;SDS011;10938;44.794;-0.676;2023-03-01T14:56:19;13.02;;;10.50;;
21554;SDS011;10938;44.794;-0.676;2023-03-01T14:58:45;11.43;;;9.45;;
21554;SDS011;10938;44.794;-0.676;2023-03-01T15:01:15;11.88;;;10.20;;
21554;SDS011;10938;44.794;-0.676;2023-03-01T15:03:43;13.32;;;11.05;;
21554;SDS011;10938;44.794;-0.676;2023-03-01T15:06:11;14.55;;;10.82;;
21554;SDS011;10938;44.794;-0.676;2023-03-01T15:08:41;13.25;;;10.85;;
21554;SDS011;10938;44.794;-0.676;2023-03-01T15:13:39;13.63;;;10.50;;
21554;SDS011;10938;44.794;-0.676;2023-03-01T15:16:09;12.65;;;11.00;;
21554;SDS011;10938;44.794;-0.676;2023-03-01T15:18:37;12.88;;;10.88;;
21554;SDS011;10938;44.794;-0.676;2023-03-01T15:23:57;15.32;;;9.77;;
21554;SDS011;10938;44.794;-0.676;2023-03-01T15:26:29;11.45;;;9.73;;
21554;SDS011;10938;44.794;-0.676;2023-03-01T15:28:57;12.68;;;10.02;;
21554;SDS011;10938;44.794;-0.676;2023-03-01T15:31:34;11.63;;;10.07;;
21554;SDS011;10938;44.794;-0.676;2023-03-01T15:36:48;12.32;;;10.52;;
21554;SDS011;10938;44.794;-0.676;2023-03-01T15:45:06;14.65;;;11.10;;
21554;SDS011;10938;44.794;-0.676;2023-03-01T15:47:50;15.85;;;12.13;;
21554;SDS011;10938;44.794;-0.676;2023-03-01T15:50:22;15.02;;;11.98;;
21554;SDS011;10938;44.794;-0.676;2023-03-01T15:52:49;13.95;;;10.80;;
21554;SDS011;10938;44.794;-0.676;2023-03-01T15:55:17;15.88;;;12.35;;
21554;SDS011;10938;44.794;-0.676;2023-03-01T15:57:47;17.50;;;11.90;;
21554;SDS011;10938;44.794;-0.676;2023-03-01T16:00:14;13.43;;;11.48;;
21554;SDS011;10938;44.794;-0.676;2023-03-01T16:02:41;14.57;;;12.27;;
21554;SDS011;10938;44.794;-0.676;2023-03-01T16:07:48;14.68;;;12.25;;
21554;SDS011;10938;44.794;-0.676;2023-03-01T16:10:14;14.52;;;11.32;;
21554;SDS011;10938;44.794;-0.676;2023-03-01T16:12:40;16.55;;;11.23;;
21554;SDS011;10938;44.794;-0.676;2023-03-01T16:15:16;15.52;;;12.00;;
21554;SDS011;10938;44.794;-0.676;2023-03-01T16:17:44;16.95;;;13.32;;
21554;SDS011;10938;44.794;-0.676;2023-03-01T16:20:10;15.00;;;12.10;;
21554;SDS011;10938;44.794;-0.676;2023-03-01T16:22:36;16.55;;;12.73;;
21554;SDS011;10938;44.794;-0.676;2023-03-01T16:25:01;16.58;;;12.52;;
21554;SDS011;10938;44.794;-0.676;2023-03-01T16:27:27;19.23;;;12.55;;
21554;SDS011;10938;44.794;-0.676;2023-03-01T16:29:53;17.60;;;13.00;;
21554;SDS011;10938;44.794;-0.676;2023-03-01T16:32:18;17.67;;;13.27;;
21554;SDS011;10938;44.794;-0.676;2023-03-01T16:34:44;15.95;;;12.27;;
21554;SDS011;10938;44.794;-0.676;2023-03-01T16:37:09;15.38;;;13.07;;
21554;SDS011;10938;44.794;-0.676;2023-03-01T16:39:35;16.17;;;12.80;;
21554;SDS011;10938;44.794;-0.676;2023-03-01T16:42:03;17.23;;;12.27;;
21554;SDS011;10938;44.794;-0.676;2023-03-01T16:44:28;18.80;;;14.02;;
21554;SDS011;10938;44.794;-0.676;2023-03-01T16:46:54;19.50;;;13.95;;
21554;SDS011;10938;44.794;-0.676;2023-03-01T16:49:19;18.75;;;14.18;;
21554;SDS011;10938;44.794;-0.676;2023-03-01T16:51:46;19.15;;;14.70;;
21554;SDS011;10938;44.794;-0.676;2023-03-01T16:54:11;19.60;;;15.25;;
21554;SDS011;10938;44.794;-0.676;2023-03-01T16:56:37;16.02;;;13.00;;
21554;SDS011;10938;44.794;-0.676;2023-03-01T16:59:04;17.52;;;12.63;;
21554;SDS011;10938;44.794;-0.676;2023-03-01T17:01:30;16.10;;;12.77;;
21554;SDS011;10938;44.794;-0.676;2023-03-01T17:04:02;15.55;;;11.75;;
21554;SDS011;10938;44.794;-0.676;2023-03-01T17:06:28;22.35;;;15.23;;
21554;SDS011;10938;44.794;-0.676;2023-03-01T17:08:58;19.30;;;14.00;;
21554;SDS011;10938;44.794;-0.676;2023-03-01T17:11:24;19.33;;;13.88;;
21554;SDS011;10938;44.794;-0.676;2023-03-01T17:13:50;19.73;;;14.43;;
21554;SDS011;10938;44.794;-0.676;2023-03-01T17:16:16;19.33;;;13.13;;